sensor_id;sensor_type;location;lat;lon;timestamp;P1;durP1;ratioP1;P2;durP2;ratioP2
1839;SDS011;920;48.944;9.148;2022-10-16T00:01:07;2.63;;;1.50;;
1839;SDS011;920;48.944;9.148;2022-10-16T00:03:36;2.97;;;1.57;;
1839;SDS011;920;48.944;9.148;2022-10-16T00:06:03;2.10;;;1.50;;
1839;SDS011;920;48.944;9.148;2022-10-16T00:08:31;1.93;;;1.43;;
1839;SDS011;920;48.944;9.148;2022-10-16T00:10:58;2.90;;;1.77;;
1839;SDS011;920;48.944;9.148;2022-10-16T00:13:27;2.83;;;1.30;;
1839;SDS011;920;48.944;9.148;2022-10-16T00:15:54;2.50;;;1.43;;
1839;SDS011;920;48.944;9.148;2022-10-16T00:18:21;2.00;;;1.47;;
1839;SDS011;920;48.944;9.148;2022-10-16T00:20:48;1.83;;;1.30;;
1839;SDS011;920;48.944;9.148;2022-10-16T00:23:14;2.17;;;1.60;;
1839;SDS011;920;48.944;9.148;2022-10-16T00:25:41;1.77;;;1.40;;
1839;SDS011;920;48.944;9.148;2022-10-16T00:28:08;3.50;;;1.60;;
1839;SDS011;920;48.944;9.148;2022-10-16T00:30:38;2.10;;;1.30;;
1839;SDS011;920;48.944;9.148;2022-10-16T00:33:06;2.43;;;1.33;;
1839;SDS011;920;48.944;9.148;2022-10-16T00:35:32;2.00;;;1.33;;
1839;SDS011;920;48.944;9.148;2022-10-16T00:37:59;2.30;;;1.37;;
1839;SDS011;920;48.944;9.148;2022-10-16T00:40:25;3.10;;;1.60;;
1839;SDS011;920;48.944;9.148;2022-10-16T00:42:53;3.30;;;1.80;;
1839;SDS011;920;48.944;9.148;2022-10-16T00:45:20;2.63;;;1.70;;
1839;SDS011;920;48.944;9.148;2022-10-16T00:47:47;1.97;;;1.40;;
1839;SDS011;920;48.944;9.148;2022-10-16T00:50:17;2.40;;;1.73;;
1839;SDS011;920;48.944;9.148;2022-10-16T00:52:46;2.27;;;1.30;;
1839;SDS011;920;48.944;9.148;2022-10-16T00:55:13;2.30;;;1.73;;
1839;SDS011;920;48.944;9.148;2022-10-16T00:57:40;2.07;;;1.50;;
1839;SDS011;920;48.944;9.148;2022-10-16T01:00:09;2.33;;;1.50;;
1839;SDS011;920;48.944;9.148;2022-10-16T01:02:40;1.60;;;1.30;;
1839;SDS011;920;48.944;9.148;2022-10-16T01:05:09;2.20;;;1.50;;
1839;SDS011;920;48.944;9.148;2022-10-16T01:07:37;3.37;;;1.60;;
1839;SDS011;920;48.944;9.148;2022-10-16T01:10:12;2.00;;;1.37;;
1839;SDS011;920;48.944;9.148;2022-10-16T01:12:44;2.33;;;1.37;;
1839;SDS011;920;48.944;9.148;2022-10-16T01:15:15;3.63;;;1.50;;
1839;SDS011;920;48.944;9.148;2022-10-16T01:17:45;1.90;;;1.40;;
1839;SDS011;920;48.944;9.148;2022-10-16T01:20:18;4.97;;;1.93;;
1839;SDS011;920;48.944;9.148;2022-10-16T01:22:55;1.83;;;1.37;;
1839;SDS011;920;48.944;9.148;2022-10-16T01:25:36;2.73;;;1.40;;
1839;SDS011;920;48.944;9.148;2022-10-16T01:28:12;1.73;;;1.30;;
1839;SDS011;920;48.944;9.148;2022-10-16T01:30:41;2.50;;;1.40;;
1839;SDS011;920;48.944;9.148;2022-10-16T01:33:10;3.13;;;1.40;;
1839;SDS011;920;48.944;9.148;2022-10-16T01:35:41;2.27;;;1.60;;
1839;SDS011;920;48.944;9.148;2022-10-16T01:38:12;2.40;;;1.43;;
1839;SDS011;920;48.944;9.148;2022-10-16T01:40:42;1.80;;;1.37;;
1839;SDS011;920;48.944;9.148;2022-10-16T01:43:14;1.90;;;1.33;;
1839;SDS011;920;48.944;9.148;2022-10-16T01:45:42;3.10;;;1.70;;
1839;SDS011;920;48.944;9.148;2022-10-16T01:48:11;3.40;;;1.30;;
1839;SDS011;920;48.944;9.148;2022-10-16T01:50:39;2.50;;;1.60;;
1839;SDS011;920;48.944;9.148;2022-10-16T01:53:07;2.63;;;1.50;;
1839;SDS011;920;48.944;9.148;2022-10-16T01:55:35;2.37;;;1.30;;
1839;SDS011;920;48.944;9.148;2022-10-16T01:58:05;2.53;;;1.80;;
1839;SDS011;920;48.944;9.148;2022-10-16T02:00:35;3.00;;;1.63;;
1839;SDS011;920;48.944;9.148;2022-10-16T02:03:03;1.90;;;1.40;;
1839;SDS011;920;48.944;9.148;2022-10-16T02:05:30;2.10;;;1.47;;
1839;SDS011;920;48.944;9.148;2022-10-16T02:07:59;3.00;;;1.80;;
1839;SDS011;920;48.944;9.148;2022-10-16T02:10:26;4.17;;;1.50;;
1839;SDS011;920;48.944;9.148;2022-10-16T02:12:56;1.80;;;1.50;;
1839;SDS011;920;48.944;9.148;2022-10-16T02:15:25;2.10;;;1.50;;
1839;SDS011;920;48.944;9.148;2022-10-16T02:17:54;3.33;;;1.70;;
1839;SDS011;920;48.944;9.148;2022-10-16T02:20:21;2.00;;;1.50;;
1839;SDS011;920;48.944;9.148;2022-10-16T02:22:51;2.83;;;1.60;;
1839;SDS011;920;48.944;9.148;2022-10-16T02:25:21;2.70;;;1.60;;
1839;SDS011;920;48.944;9.148;2022-10-16T02:27:51;2.67;;;1.43;;
1839;SDS011;920;48.944;9.148;2022-10-16T02:30:21;2.10;;;1.60;;
1839;SDS011;920;48.944;9.148;2022-10-16T02:32:50;5.27;;;1.50;;
1839;SDS011;920;48.944;9.148;2022-10-16T02:35:20;2.60;;;1.60;;
1839;SDS011;920;48.944;9.148;2022-10-16T02:37:47;1.93;;;1.37;;
1839;SDS011;920;48.944;9.148;2022-10-16T02:40:14;4.70;;;1.70;;
1839;SDS011;920;48.944;9.148;2022-10-16T02:42:41;3.40;;;1.40;;
1839;SDS011;920;48.944;9.148;2022-10-16T02:45:08;3.00;;;1.60;;
1839;SDS011;920;48.944;9.148;2022-10-16T02:47:36;2.93;;;1.67;;
1839;SDS011;920;48.944;9.148;2022-10-16T02:50:03;1.97;;;1.43;;
1839;SDS011;920;48.944;9.148;2022-10-16T02:52:32;2.43;;;1.63;;
1839;SDS011;920;48.944;9.148;2022-10-16T02:54:58;2.57;;;1.33;;
1839;SDS011;920;48.944;9.148;2022-10-16T02:57:25;1.90;;;1.37;;
1839;SDS011;920;48.944;9.148;2022-10-16T02:59:51;5.03;;;1.53;;
1839;SDS011;920;48.944;9.148;2022-10-16T03:02:18;2.53;;;1.40;;
1839;SDS011;920;48.944;9.148;2022-10-16T03:04:45;3.07;;;1.60;;
1839;SDS011;920;48.944;9.148;2022-10-16T03:07:12;2.97;;;1.70;;
1839;SDS011;920;48.944;9.148;2022-10-16T03:09:40;2.27;;;1.70;;
1839;SDS011;920;48.944;9.148;2022-10-16T03:12:06;2.20;;;1.70;;
1839;SDS011;920;48.944;9.148;2022-10-16T03:14:33;1.73;;;1.43;;
1839;SDS011;920;48.944;9.148;2022-10-16T03:16:59;2.00;;;1.60;;
1839;SDS011;920;48.944;9.148;2022-10-16T03:19:26;2.40;;;1.43;;
1839;SDS011;920;48.944;9.148;2022-10-16T03:21:52;2.03;;;1.30;;
1839;SDS011;920;48.944;9.148;2022-10-16T03:24:19;2.80;;;1.50;;
1839;SDS011;920;48.944;9.148;2022-10-16T03:26:47;2.37;;;1.53;;
1839;SDS011;920;48.944;9.148;2022-10-16T03:29:13;2.97;;;1.50;;
1839;SDS011;920;48.944;9.148;2022-10-16T03:31:40;2.80;;;1.80;;
1839;SDS011;920;48.944;9.148;2022-10-16T03:34:07;2.50;;;1.50;;
1839;SDS011;920;48.944;9.148;2022-10-16T03:36:33;2.30;;;1.90;;
1839;SDS011;920;48.944;9.148;2022-10-16T03:39:00;2.20;;;1.50;;
1839;SDS011;920;48.944;9.148;2022-10-16T03:41:27;1.93;;;1.60;;
1839;SDS011;920;48.944;9.148;2022-10-16T03:43:55;2.00;;;1.23;;
1839;SDS011;920;48.944;9.148;2022-10-16T03:46:21;2.13;;;1.60;;
1839;SDS011;920;48.944;9.148;2022-10-16T03:48:48;2.10;;;1.60;;
1839;SDS011;920;48.944;9.148;2022-10-16T03:51:14;2.27;;;1.53;;
1839;SDS011;920;48.944;9.148;2022-10-16T03:53:41;2.27;;;1.70;;
1839;SDS011;920;48.944;9.148;2022-10-16T03:56:08;1.90;;;1.47;;
1839;SDS011;920;48.944;9.148;2022-10-16T03:58:34;2.40;;;1.67;;
1839;SDS011;920;48.944;9.148;2022-10-16T04:01:02;2.37;;;1.43;;
1839;SDS011;920;48.944;9.148;2022-10-16T04:03:29;2.10;;;1.63;;
1839;SDS011;920;48.944;9.148;2022-10-16T04:05:56;2.40;;;1.93;;
1839;SDS011;920;48.944;9.148;2022-10-16T04:08:22;2.77;;;1.50;;
1839;SDS011;920;48.944;9.148;2022-10-16T04:10:49;1.83;;;1.33;;
1839;SDS011;920;48.944;9.148;2022-10-16T04:13:16;2.23;;;1.37;;
1839;SDS011;920;48.944;9.148;2022-10-16T04:15:44;3.03;;;1.60;;
1839;SDS011;920;48.944;9.148;2022-10-16T04:18:12;3.23;;;1.73;;
1839;SDS011;920;48.944;9.148;2022-10-16T04:20:39;1.80;;;1.53;;
1839;SDS011;920;48.944;9.148;2022-10-16T04:23:07;2.40;;;1.57;;
1839;SDS011;920;48.944;9.148;2022-10-16T04:25:33;2.80;;;1.77;;
1839;SDS011;920;48.944;9.148;2022-10-16T04:28:00;2.40;;;1.73;;
1839;SDS011;920;48.944;9.148;2022-10-16T04:30:26;3.07;;;1.80;;
1839;SDS011;920;48.944;9.148;2022-10-16T04:32:53;1.90;;;1.60;;
1839;SDS011;920;48.944;9.148;2022-10-16T04:35:21;2.60;;;1.80;;
1839;SDS011;920;48.944;9.148;2022-10-16T04:37:48;3.17;;;1.73;;
1839;SDS011;920;48.944;9.148;2022-10-16T04:40:15;2.13;;;1.70;;
1839;SDS011;920;48.944;9.148;2022-10-16T04:42:42;5.90;;;1.97;;
1839;SDS011;920;48.944;9.148;2022-10-16T04:45:09;4.37;;;1.93;;
1839;SDS011;920;48.944;9.148;2022-10-16T04:47:36;2.80;;;1.80;;
1839;SDS011;920;48.944;9.148;2022-10-16T04:50:03;2.40;;;1.63;;
1839;SDS011;920;48.944;9.148;2022-10-16T04:52:32;2.50;;;1.70;;
1839;SDS011;920;48.944;9.148;2022-10-16T04:54:59;2.63;;;1.80;;
1839;SDS011;920;48.944;9.148;2022-10-16T04:57:27;2.63;;;2.00;;
1839;SDS011;920;48.944;9.148;2022-10-16T04:59:54;3.47;;;2.23;;
1839;SDS011;920;48.944;9.148;2022-10-16T05:02:21;3.40;;;2.20;;
1839;SDS011;920;48.944;9.148;2022-10-16T05:04:47;4.03;;;2.47;;
1839;SDS011;920;48.944;9.148;2022-10-16T05:07:14;3.43;;;2.00;;
1839;SDS011;920;48.944;9.148;2022-10-16T05:09:42;4.40;;;2.23;;
1839;SDS011;920;48.944;9.148;2022-10-16T05:12:08;6.03;;;2.47;;
1839;SDS011;920;48.944;9.148;2022-10-16T05:14:35;2.60;;;2.30;;
1839;SDS011;920;48.944;9.148;2022-10-16T05:17:02;2.53;;;1.80;;
1839;SDS011;920;48.944;9.148;2022-10-16T05:19:28;2.30;;;1.90;;
1839;SDS011;920;48.944;9.148;2022-10-16T05:21:55;3.93;;;1.50;;
1839;SDS011;920;48.944;9.148;2022-10-16T05:24:22;2.70;;;2.00;;
1839;SDS011;920;48.944;9.148;2022-10-16T05:26:50;2.90;;;1.80;;
1839;SDS011;920;48.944;9.148;2022-10-16T05:29:17;3.13;;;1.77;;
1839;SDS011;920;48.944;9.148;2022-10-16T05:31:43;3.67;;;1.83;;
1839;SDS011;920;48.944;9.148;2022-10-16T05:34:10;2.20;;;1.60;;
1839;SDS011;920;48.944;9.148;2022-10-16T05:36:37;4.50;;;1.63;;
1839;SDS011;920;48.944;9.148;2022-10-16T05:39:03;2.00;;;1.70;;
1839;SDS011;920;48.944;9.148;2022-10-16T05:41:30;3.70;;;1.63;;
1839;SDS011;920;48.944;9.148;2022-10-16T05:43:58;5.93;;;2.20;;
1839;SDS011;920;48.944;9.148;2022-10-16T05:46:24;3.40;;;1.87;;
1839;SDS011;920;48.944;9.148;2022-10-16T05:48:51;4.90;;;1.97;;
1839;SDS011;920;48.944;9.148;2022-10-16T05:51:18;2.50;;;2.00;;
1839;SDS011;920;48.944;9.148;2022-10-16T05:53:45;2.03;;;1.57;;
1839;SDS011;920;48.944;9.148;2022-10-16T05:56:11;3.57;;;2.10;;
1839;SDS011;920;48.944;9.148;2022-10-16T05:58:38;2.73;;;1.80;;
1839;SDS011;920;48.944;9.148;2022-10-16T06:01:09;2.00;;;1.60;;
1839;SDS011;920;48.944;9.148;2022-10-16T06:03:37;2.67;;;2.13;;
1839;SDS011;920;48.944;9.148;2022-10-16T06:06:07;2.20;;;1.70;;
1839;SDS011;920;48.944;9.148;2022-10-16T06:08:34;1.93;;;1.73;;
1839;SDS011;920;48.944;9.148;2022-10-16T06:11:01;2.67;;;1.83;;
1839;SDS011;920;48.944;9.148;2022-10-16T06:13:28;2.90;;;2.17;;
1839;SDS011;920;48.944;9.148;2022-10-16T06:15:56;2.47;;;1.63;;
1839;SDS011;920;48.944;9.148;2022-10-16T06:18:24;2.57;;;1.67;;
1839;SDS011;920;48.944;9.148;2022-10-16T06:20:51;2.67;;;1.80;;
1839;SDS011;920;48.944;9.148;2022-10-16T06:23:18;2.70;;;1.70;;
1839;SDS011;920;48.944;9.148;2022-10-16T06:25:44;2.20;;;1.70;;
1839;SDS011;920;48.944;9.148;2022-10-16T06:28:11;2.00;;;1.70;;
1839;SDS011;920;48.944;9.148;2022-10-16T06:30:39;3.07;;;1.70;;
1839;SDS011;920;48.944;9.148;2022-10-16T06:33:06;2.80;;;2.07;;
1839;SDS011;920;48.944;9.148;2022-10-16T06:35:34;3.40;;;2.10;;
1839;SDS011;920;48.944;9.148;2022-10-16T06:38:00;2.30;;;1.57;;
1839;SDS011;920;48.944;9.148;2022-10-16T06:40:27;3.07;;;2.00;;
1839;SDS011;920;48.944;9.148;2022-10-16T06:42:54;6.43;;;2.07;;
1839;SDS011;920;48.944;9.148;2022-10-16T06:45:21;2.10;;;1.80;;
1839;SDS011;920;48.944;9.148;2022-10-16T06:47:47;2.83;;;1.90;;
1839;SDS011;920;48.944;9.148;2022-10-16T06:50:14;2.10;;;1.67;;
1839;SDS011;920;48.944;9.148;2022-10-16T06:52:42;9.03;;;2.57;;
1839;SDS011;920;48.944;9.148;2022-10-16T06:55:09;2.13;;;1.83;;
1839;SDS011;920;48.944;9.148;2022-10-16T06:57:35;6.37;;;2.20;;
1839;SDS011;920;48.944;9.148;2022-10-16T07:00:02;2.00;;;1.80;;
1839;SDS011;920;48.944;9.148;2022-10-16T07:02:29;2.83;;;2.40;;
1839;SDS011;920;48.944;9.148;2022-10-16T07:04:56;3.10;;;2.73;;
1839;SDS011;920;48.944;9.148;2022-10-16T07:07:22;3.13;;;2.63;;
1839;SDS011;920;48.944;9.148;2022-10-16T07:09:53;4.43;;;2.40;;
1839;SDS011;920;48.944;9.148;2022-10-16T07:12:19;2.63;;;2.00;;
1839;SDS011;920;48.944;9.148;2022-10-16T07:14:46;2.40;;;2.00;;
1839;SDS011;920;48.944;9.148;2022-10-16T07:17:12;2.30;;;1.90;;
1839;SDS011;920;48.944;9.148;2022-10-16T07:19:39;5.00;;;1.87;;
1839;SDS011;920;48.944;9.148;2022-10-16T07:22:06;2.40;;;1.80;;
1839;SDS011;920;48.944;9.148;2022-10-16T07:24:32;2.80;;;1.73;;
1839;SDS011;920;48.944;9.148;2022-10-16T07:27:01;2.47;;;1.73;;
1839;SDS011;920;48.944;9.148;2022-10-16T07:29:27;5.87;;;1.80;;
1839;SDS011;920;48.944;9.148;2022-10-16T07:31:54;2.40;;;1.90;;
1839;SDS011;920;48.944;9.148;2022-10-16T07:34:21;3.07;;;1.70;;
1839;SDS011;920;48.944;9.148;2022-10-16T07:36:48;4.60;;;3.80;;
1839;SDS011;920;48.944;9.148;2022-10-16T07:39:15;3.80;;;2.97;;
1839;SDS011;920;48.944;9.148;2022-10-16T07:41:41;3.43;;;3.00;;
1839;SDS011;920;48.944;9.148;2022-10-16T07:44:09;3.30;;;2.67;;
1839;SDS011;920;48.944;9.148;2022-10-16T07:46:36;4.23;;;3.17;;
1839;SDS011;920;48.944;9.148;2022-10-16T07:49:03;6.50;;;3.70;;
1839;SDS011;920;48.944;9.148;2022-10-16T07:51:30;4.30;;;2.90;;
1839;SDS011;920;48.944;9.148;2022-10-16T07:53:56;6.87;;;3.07;;
1839;SDS011;920;48.944;9.148;2022-10-16T07:56:23;4.37;;;2.40;;
1839;SDS011;920;48.944;9.148;2022-10-16T07:58:50;3.13;;;2.60;;
1839;SDS011;920;48.944;9.148;2022-10-16T08:01:19;3.53;;;2.23;;
1839;SDS011;920;48.944;9.148;2022-10-16T08:03:46;2.40;;;2.20;;
1839;SDS011;920;48.944;9.148;2022-10-16T08:06:13;2.20;;;1.90;;
1839;SDS011;920;48.944;9.148;2022-10-16T08:08:40;2.80;;;1.80;;
1839;SDS011;920;48.944;9.148;2022-10-16T08:11:07;2.07;;;1.60;;
1839;SDS011;920;48.944;9.148;2022-10-16T08:13:34;2.30;;;1.80;;
1839;SDS011;920;48.944;9.148;2022-10-16T08:16:01;2.10;;;1.67;;
1839;SDS011;920;48.944;9.148;2022-10-16T08:18:34;3.60;;;2.10;;
1839;SDS011;920;48.944;9.148;2022-10-16T08:21:01;2.43;;;1.77;;
1839;SDS011;920;48.944;9.148;2022-10-16T08:23:28;2.83;;;2.23;;
1839;SDS011;920;48.944;9.148;2022-10-16T08:25:55;2.80;;;1.80;;
1839;SDS011;920;48.944;9.148;2022-10-16T08:28:22;3.70;;;2.13;;
1839;SDS011;920;48.944;9.148;2022-10-16T08:30:49;3.27;;;2.13;;
1839;SDS011;920;48.944;9.148;2022-10-16T08:33:16;2.43;;;1.83;;
1839;SDS011;920;48.944;9.148;2022-10-16T08:35:49;11.53;;;2.80;;
1839;SDS011;920;48.944;9.148;2022-10-16T08:38:16;2.30;;;1.87;;
1839;SDS011;920;48.944;9.148;2022-10-16T08:40:43;2.67;;;2.10;;
1839;SDS011;920;48.944;9.148;2022-10-16T08:46:06;2.90;;;1.80;;
1839;SDS011;920;48.944;9.148;2022-10-16T08:48:43;3.13;;;2.00;;
1839;SDS011;920;48.944;9.148;2022-10-16T08:51:16;3.40;;;1.80;;
1839;SDS011;920;48.944;9.148;2022-10-16T08:53:47;2.33;;;1.80;;
1839;SDS011;920;48.944;9.148;2022-10-16T08:56:17;3.50;;;2.70;;
1839;SDS011;920;48.944;9.148;2022-10-16T08:58:44;10.30;;;3.17;;
1839;SDS011;920;48.944;9.148;2022-10-16T09:01:12;2.80;;;2.07;;
1839;SDS011;920;48.944;9.148;2022-10-16T09:03:50;3.00;;;2.00;;
1839;SDS011;920;48.944;9.148;2022-10-16T09:06:29;2.60;;;1.83;;
1839;SDS011;920;48.944;9.148;2022-10-16T09:09:04;2.27;;;1.70;;
1839;SDS011;920;48.944;9.148;2022-10-16T09:11:40;4.87;;;2.50;;
1839;SDS011;920;48.944;9.148;2022-10-16T09:14:17;3.13;;;1.83;;
1839;SDS011;920;48.944;9.148;2022-10-16T09:17:03;4.43;;;2.10;;
1839;SDS011;920;48.944;9.148;2022-10-16T09:19:35;2.60;;;1.83;;
1839;SDS011;920;48.944;9.148;2022-10-16T09:22:10;3.60;;;3.00;;
1839;SDS011;920;48.944;9.148;2022-10-16T09:24:38;3.93;;;2.50;;
1839;SDS011;920;48.944;9.148;2022-10-16T09:27:07;4.40;;;3.70;;
1839;SDS011;920;48.944;9.148;2022-10-16T09:29:35;3.97;;;3.57;;
1839;SDS011;920;48.944;9.148;2022-10-16T09:32:07;4.70;;;3.00;;
1839;SDS011;920;48.944;9.148;2022-10-16T09:34:39;4.00;;;2.20;;
1839;SDS011;920;48.944;9.148;2022-10-16T09:37:10;2.80;;;1.90;;
1839;SDS011;920;48.944;9.148;2022-10-16T09:39:45;3.63;;;1.87;;
1839;SDS011;920;48.944;9.148;2022-10-16T09:42:14;2.00;;;1.33;;
1839;SDS011;920;48.944;9.148;2022-10-16T09:44:41;2.43;;;1.60;;
1839;SDS011;920;48.944;9.148;2022-10-16T09:47:12;2.70;;;1.90;;
1839;SDS011;920;48.944;9.148;2022-10-16T09:49:50;3.43;;;1.70;;
1839;SDS011;920;48.944;9.148;2022-10-16T09:52:19;4.10;;;1.80;;
1839;SDS011;920;48.944;9.148;2022-10-16T09:54:49;2.10;;;1.60;;
1839;SDS011;920;48.944;9.148;2022-10-16T09:57:17;2.50;;;1.77;;
1839;SDS011;920;48.944;9.148;2022-10-16T09:59:47;2.30;;;1.50;;
1839;SDS011;920;48.944;9.148;2022-10-16T10:02:16;2.50;;;1.67;;
1839;SDS011;920;48.944;9.148;2022-10-16T10:04:44;2.17;;;1.53;;
1839;SDS011;920;48.944;9.148;2022-10-16T10:07:16;4.57;;;1.83;;
1839;SDS011;920;48.944;9.148;2022-10-16T10:09:47;2.47;;;1.63;;
1839;SDS011;920;48.944;9.148;2022-10-16T10:12:17;2.40;;;1.50;;
1839;SDS011;920;48.944;9.148;2022-10-16T10:14:46;2.20;;;1.50;;
1839;SDS011;920;48.944;9.148;2022-10-16T10:17:15;2.10;;;1.60;;
1839;SDS011;920;48.944;9.148;2022-10-16T10:19:45;2.87;;;1.60;;
1839;SDS011;920;48.944;9.148;2022-10-16T10:22:19;2.00;;;1.47;;
1839;SDS011;920;48.944;9.148;2022-10-16T10:24:55;2.40;;;1.50;;
1839;SDS011;920;48.944;9.148;2022-10-16T10:27:24;2.83;;;1.80;;
1839;SDS011;920;48.944;9.148;2022-10-16T10:29:59;2.63;;;1.60;;
1839;SDS011;920;48.944;9.148;2022-10-16T10:32:30;2.40;;;1.70;;
1839;SDS011;920;48.944;9.148;2022-10-16T10:35:07;2.87;;;1.50;;
1839;SDS011;920;48.944;9.148;2022-10-16T10:37:46;2.07;;;1.50;;
1839;SDS011;920;48.944;9.148;2022-10-16T10:40:22;2.17;;;1.70;;
1839;SDS011;920;48.944;9.148;2022-10-16T10:42:55;2.40;;;1.87;;
1839;SDS011;920;48.944;9.148;2022-10-16T10:45:26;2.27;;;1.47;;
1839;SDS011;920;48.944;9.148;2022-10-16T10:48:06;3.10;;;1.90;;
1839;SDS011;920;48.944;9.148;2022-10-16T10:50:43;1.70;;;1.30;;
1839;SDS011;920;48.944;9.148;2022-10-16T10:53:18;2.10;;;1.60;;
1839;SDS011;920;48.944;9.148;2022-10-16T10:55:52;3.30;;;1.50;;
1839;SDS011;920;48.944;9.148;2022-10-16T11:01:16;6.37;;;1.70;;
1839;SDS011;920;48.944;9.148;2022-10-16T11:03:56;2.73;;;1.40;;
1839;SDS011;920;48.944;9.148;2022-10-16T11:06:33;3.00;;;2.03;;
1839;SDS011;920;48.944;9.148;2022-10-16T11:09:10;3.27;;;1.40;;
1839;SDS011;920;48.944;9.148;2022-10-16T11:11:40;4.13;;;1.63;;
1839;SDS011;920;48.944;9.148;2022-10-16T11:14:11;2.50;;;1.90;;
1839;SDS011;920;48.944;9.148;2022-10-16T11:16:42;3.40;;;1.63;;
1839;SDS011;920;48.944;9.148;2022-10-16T11:19:11;3.90;;;1.67;;
1839;SDS011;920;48.944;9.148;2022-10-16T11:21:43;2.43;;;1.67;;
1839;SDS011;920;48.944;9.148;2022-10-16T11:24:19;2.40;;;1.40;;
1839;SDS011;920;48.944;9.148;2022-10-16T11:26:47;3.73;;;2.03;;
1839;SDS011;920;48.944;9.148;2022-10-16T11:29:17;3.03;;;1.73;;
1839;SDS011;920;48.944;9.148;2022-10-16T11:31:47;3.53;;;1.80;;
1839;SDS011;920;48.944;9.148;2022-10-16T11:34:17;2.00;;;1.50;;
1839;SDS011;920;48.944;9.148;2022-10-16T11:36:49;2.40;;;1.60;;
1839;SDS011;920;48.944;9.148;2022-10-16T11:39:20;2.40;;;1.80;;
1839;SDS011;920;48.944;9.148;2022-10-16T11:41:49;5.70;;;2.60;;
1839;SDS011;920;48.944;9.148;2022-10-16T11:44:24;3.10;;;2.43;;
1839;SDS011;920;48.944;9.148;2022-10-16T11:47:01;2.60;;;2.10;;
1839;SDS011;920;48.944;9.148;2022-10-16T11:49:33;2.70;;;1.63;;
1839;SDS011;920;48.944;9.148;2022-10-16T11:52:01;2.77;;;1.60;;
1839;SDS011;920;48.944;9.148;2022-10-16T11:54:34;4.13;;;1.50;;
1839;SDS011;920;48.944;9.148;2022-10-16T11:57:11;1.97;;;1.50;;
1839;SDS011;920;48.944;9.148;2022-10-16T11:59:42;3.37;;;1.33;;
1839;SDS011;920;48.944;9.148;2022-10-16T12:04:59;2.93;;;1.70;;
1839;SDS011;920;48.944;9.148;2022-10-16T12:07:34;2.87;;;1.50;;
1839;SDS011;920;48.944;9.148;2022-10-16T12:10:11;3.23;;;1.83;;
1839;SDS011;920;48.944;9.148;2022-10-16T12:12:47;2.97;;;1.50;;
1839;SDS011;920;48.944;9.148;2022-10-16T12:15:21;2.00;;;1.30;;
1839;SDS011;920;48.944;9.148;2022-10-16T12:17:49;2.20;;;1.80;;
1839;SDS011;920;48.944;9.148;2022-10-16T12:20:20;2.60;;;1.50;;
1839;SDS011;920;48.944;9.148;2022-10-16T12:22:51;1.80;;;1.40;;
1839;SDS011;920;48.944;9.148;2022-10-16T12:25:22;2.47;;;1.60;;
1839;SDS011;920;48.944;9.148;2022-10-16T12:27:53;1.70;;;1.20;;
1839;SDS011;920;48.944;9.148;2022-10-16T12:30:22;2.20;;;1.60;;
1839;SDS011;920;48.944;9.148;2022-10-16T12:32:53;2.40;;;1.40;;
1839;SDS011;920;48.944;9.148;2022-10-16T12:35:20;2.10;;;1.50;;
1839;SDS011;920;48.944;9.148;2022-10-16T12:37:48;2.27;;;1.60;;
1839;SDS011;920;48.944;9.148;2022-10-16T12:40:16;1.80;;;1.30;;
1839;SDS011;920;48.944;9.148;2022-10-16T12:42:52;2.20;;;1.50;;
1839;SDS011;920;48.944;9.148;2022-10-16T12:45:24;2.03;;;1.40;;
1839;SDS011;920;48.944;9.148;2022-10-16T12:47:53;3.43;;;1.60;;
1839;SDS011;920;48.944;9.148;2022-10-16T12:50:24;2.03;;;1.50;;
1839;SDS011;920;48.944;9.148;2022-10-16T12:52:56;3.63;;;1.93;;
1839;SDS011;920;48.944;9.148;2022-10-16T12:55:24;2.10;;;1.60;;
1839;SDS011;920;48.944;9.148;2022-10-16T12:58:02;4.67;;;1.80;;
1839;SDS011;920;48.944;9.148;2022-10-16T13:00:38;2.20;;;1.40;;
1839;SDS011;920;48.944;9.148;2022-10-16T13:03:22;2.70;;;1.30;;
1839;SDS011;920;48.944;9.148;2022-10-16T13:05:59;2.70;;;1.53;;
1839;SDS011;920;48.944;9.148;2022-10-16T13:08:38;2.40;;;1.37;;
1839;SDS011;920;48.944;9.148;2022-10-16T13:11:19;2.53;;;1.20;;
1839;SDS011;920;48.944;9.148;2022-10-16T13:14:01;2.10;;;1.30;;
1839;SDS011;920;48.944;9.148;2022-10-16T13:16:40;3.10;;;1.43;;
1839;SDS011;920;48.944;9.148;2022-10-16T13:19:16;1.80;;;1.37;;
1839;SDS011;920;48.944;9.148;2022-10-16T13:21:48;3.90;;;1.60;;
1839;SDS011;920;48.944;9.148;2022-10-16T13:24:20;2.00;;;1.60;;
1839;SDS011;920;48.944;9.148;2022-10-16T13:26:56;2.33;;;1.40;;
1839;SDS011;920;48.944;9.148;2022-10-16T13:29:29;2.33;;;1.20;;
1839;SDS011;920;48.944;9.148;2022-10-16T13:31:57;2.70;;;1.30;;
1839;SDS011;920;48.944;9.148;2022-10-16T13:34:24;2.00;;;1.30;;
1839;SDS011;920;48.944;9.148;2022-10-16T13:36:51;5.10;;;1.40;;
1839;SDS011;920;48.944;9.148;2022-10-16T13:39:21;1.63;;;1.17;;
1839;SDS011;920;48.944;9.148;2022-10-16T13:42:00;3.07;;;1.30;;
1839;SDS011;920;48.944;9.148;2022-10-16T13:44:28;1.87;;;1.30;;
1839;SDS011;920;48.944;9.148;2022-10-16T13:46:58;4.03;;;1.53;;
1839;SDS011;920;48.944;9.148;2022-10-16T13:49:24;2.43;;;1.40;;
1839;SDS011;920;48.944;9.148;2022-10-16T13:51:54;2.50;;;1.50;;
1839;SDS011;920;48.944;9.148;2022-10-16T13:54:21;2.00;;;1.37;;
1839;SDS011;920;48.944;9.148;2022-10-16T13:56:48;2.00;;;1.10;;
1839;SDS011;920;48.944;9.148;2022-10-16T13:59:26;2.67;;;1.70;;
1839;SDS011;920;48.944;9.148;2022-10-16T14:01:54;3.03;;;1.73;;
1839;SDS011;920;48.944;9.148;2022-10-16T14:04:21;3.63;;;1.20;;
1839;SDS011;920;48.944;9.148;2022-10-16T14:06:49;1.77;;;1.33;;
1839;SDS011;920;48.944;9.148;2022-10-16T14:09:19;4.97;;;1.60;;
1839;SDS011;920;48.944;9.148;2022-10-16T14:11:49;2.33;;;1.50;;
1839;SDS011;920;48.944;9.148;2022-10-16T14:14:17;2.20;;;1.30;;
1839;SDS011;920;48.944;9.148;2022-10-16T14:16:46;3.23;;;1.70;;
1839;SDS011;920;48.944;9.148;2022-10-16T14:19:14;2.63;;;1.20;;
1839;SDS011;920;48.944;9.148;2022-10-16T14:21:45;2.47;;;1.57;;
1839;SDS011;920;48.944;9.148;2022-10-16T14:24:12;3.03;;;1.50;;
1839;SDS011;920;48.944;9.148;2022-10-16T14:26:40;2.20;;;1.30;;
1839;SDS011;920;48.944;9.148;2022-10-16T14:29:10;1.80;;;1.23;;
1839;SDS011;920;48.944;9.148;2022-10-16T14:31:38;2.20;;;1.60;;
1839;SDS011;920;48.944;9.148;2022-10-16T14:36:52;2.57;;;1.60;;
1839;SDS011;920;48.944;9.148;2022-10-16T14:39:20;2.00;;;1.40;;
1839;SDS011;920;48.944;9.148;2022-10-16T14:41:51;2.70;;;1.40;;
1839;SDS011;920;48.944;9.148;2022-10-16T14:44:18;2.43;;;1.43;;
1839;SDS011;920;48.944;9.148;2022-10-16T14:46:46;2.17;;;1.67;;
1839;SDS011;920;48.944;9.148;2022-10-16T14:49:14;3.00;;;1.50;;
1839;SDS011;920;48.944;9.148;2022-10-16T14:51:46;3.40;;;1.47;;
1839;SDS011;920;48.944;9.148;2022-10-16T14:54:13;4.60;;;1.40;;
1839;SDS011;920;48.944;9.148;2022-10-16T14:56:45;2.93;;;1.43;;
1839;SDS011;920;48.944;9.148;2022-10-16T14:59:14;2.00;;;1.50;;
1839;SDS011;920;48.944;9.148;2022-10-16T15:01:42;2.20;;;1.60;;
1839;SDS011;920;48.944;9.148;2022-10-16T15:04:09;3.70;;;1.70;;
1839;SDS011;920;48.944;9.148;2022-10-16T15:06:38;2.63;;;1.63;;
1839;SDS011;920;48.944;9.148;2022-10-16T15:09:06;2.27;;;1.70;;
1839;SDS011;920;48.944;9.148;2022-10-16T15:11:32;4.97;;;1.40;;
1839;SDS011;920;48.944;9.148;2022-10-16T15:13:59;2.20;;;1.37;;
1839;SDS011;920;48.944;9.148;2022-10-16T15:16:26;2.20;;;1.63;;
1839;SDS011;920;48.944;9.148;2022-10-16T15:18:52;3.03;;;1.90;;
1839;SDS011;920;48.944;9.148;2022-10-16T15:21:20;3.03;;;1.60;;
1839;SDS011;920;48.944;9.148;2022-10-16T15:23:49;1.70;;;1.20;;
1839;SDS011;920;48.944;9.148;2022-10-16T15:26:17;2.57;;;1.43;;
1839;SDS011;920;48.944;9.148;2022-10-16T15:28:44;2.53;;;1.40;;
1839;SDS011;920;48.944;9.148;2022-10-16T15:31:10;2.83;;;1.83;;
1839;SDS011;920;48.944;9.148;2022-10-16T15:33:37;1.90;;;1.50;;
1839;SDS011;920;48.944;9.148;2022-10-16T15:36:04;2.20;;;1.57;;
1839;SDS011;920;48.944;9.148;2022-10-16T15:38:31;2.17;;;1.50;;
1839;SDS011;920;48.944;9.148;2022-10-16T15:40:57;3.50;;;1.60;;
1839;SDS011;920;48.944;9.148;2022-10-16T15:43:25;1.77;;;1.17;;
1839;SDS011;920;48.944;9.148;2022-10-16T15:45:58;4.17;;;1.40;;
1839;SDS011;920;48.944;9.148;2022-10-16T15:48:26;1.70;;;1.30;;
1839;SDS011;920;48.944;9.148;2022-10-16T15:50:53;3.30;;;1.40;;
1839;SDS011;920;48.944;9.148;2022-10-16T15:53:19;2.23;;;1.57;;